sensor_id;sensor_type;location;lat;lon;timestamp;P1;durP1;ratioP1;P2;durP2;ratioP2
78561;SDS011;68963;52.138;5.446;2023-07-20T00:02:06;6.20;;;3.33;;
78561;SDS011;68963;52.138;5.446;2023-07-20T00:07:00;6.22;;;3.30;;
78561;SDS011;68963;52.138;5.446;2023-07-20T00:09:27;6.35;;;3.47;;
78561;SDS011;68963;52.138;5.446;2023-07-20T00:11:54;7.10;;;3.42;;
78561;SDS011;68963;52.138;5.446;2023-07-20T00:14:21;6.70;;;3.15;;
78561;SDS011;68963;52.138;5.446;2023-07-20T00:16:49;6.63;;;2.90;;
78561;SDS011;68963;52.138;5.446;2023-07-20T00:21:52;5.55;;;2.90;;
78561;SDS011;68963;52.138;5.446;2023-07-20T00:24:20;4.82;;;2.67;;
78561;SDS011;68963;52.138;5.446;2023-07-20T00:26:47;5.45;;;2.72;;
78561;SDS011;68963;52.138;5.446;2023-07-20T00:29:13;4.30;;;2.35;;
78561;SDS011;68963;52.138;5.446;2023-07-20T00:31:40;4.80;;;2.42;;
78561;SDS011;68963;52.138;5.446;2023-07-20T00:34:07;5.35;;;2.20;;
78561;SDS011;68963;52.138;5.446;2023-07-20T00:36:33;4.20;;;2.08;;
78561;SDS011;68963;52.138;5.446;2023-07-20T00:39:00;5.40;;;1.90;;
78561;SDS011;68963;52.138;5.446;2023-07-20T00:41:27;4.47;;;1.85;;
78561;SDS011;68963;52.138;5.446;2023-07-20T00:43:55;4.50;;;2.03;;
78561;SDS011;68963;52.138;5.446;2023-07-20T00:46:23;4.53;;;1.73;;
78561;SDS011;68963;52.138;5.446;2023-07-20T00:48:52;4.20;;;1.75;;
78561;SDS011;68963;52.138;5.446;2023-07-20T00:51:20;5.43;;;2.13;;
78561;SDS011;68963;52.138;5.446;2023-07-20T00:53:47;4.75;;;1.90;;
78561;SDS011;68963;52.138;5.446;2023-07-20T00:56:15;4.45;;;2.00;;
78561;SDS011;68963;52.138;5.446;2023-07-20T00:58:42;4.57;;;1.75;;
78561;SDS011;68963;52.138;5.446;2023-07-20T01:01:09;4.25;;;1.70;;
78561;SDS011;68963;52.138;5.446;2023-07-20T01:03:35;4.78;;;1.67;;
78561;SDS011;68963;52.138;5.446;2023-07-20T01:06:22;5.32;;;1.80;;
78561;SDS011;68963;52.138;5.446;2023-07-20T01:11:24;4.20;;;1.50;;
78561;SDS011;68963;52.138;5.446;2023-07-20T01:13:58;4.95;;;1.98;;
78561;SDS011;68963;52.138;5.446;2023-07-20T01:16:26;4.25;;;1.80;;
78561;SDS011;68963;52.138;5.446;2023-07-20T01:18:53;4.35;;;1.50;;
78561;SDS011;68963;52.138;5.446;2023-07-20T01:21:21;4.20;;;1.63;;
78561;SDS011;68963;52.138;5.446;2023-07-20T01:24:05;4.07;;;1.60;;
78561;SDS011;68963;52.138;5.446;2023-07-20T01:31:55;4.50;;;1.70;;
78561;SDS011;68963;52.138;5.446;2023-07-20T01:34:23;3.83;;;1.90;;
78561;SDS011;68963;52.138;5.446;2023-07-20T01:36:52;3.58;;;1.70;;
78561;SDS011;68963;52.138;5.446;2023-07-20T01:39:21;3.67;;;1.60;;
78561;SDS011;68963;52.138;5.446;2023-07-20T01:41:48;3.95;;;1.73;;
78561;SDS011;68963;52.138;5.446;2023-07-20T01:44:15;4.07;;;1.70;;
78561;SDS011;68963;52.138;5.446;2023-07-20T01:46:42;3.78;;;1.77;;
78561;SDS011;68963;52.138;5.446;2023-07-20T01:49:08;3.72;;;1.70;;
78561;SDS011;68963;52.138;5.446;2023-07-20T01:51:35;3.83;;;1.75;;
78561;SDS011;68963;52.138;5.446;2023-07-20T01:54:02;4.13;;;1.80;;
78561;SDS011;68963;52.138;5.446;2023-07-20T01:56:29;4.22;;;2.03;;
78561;SDS011;68963;52.138;5.446;2023-07-20T01:58:55;4.10;;;1.88;;
78561;SDS011;68963;52.138;5.446;2023-07-20T02:01:22;3.85;;;1.83;;
78561;SDS011;68963;52.138;5.446;2023-07-20T02:03:49;4.40;;;1.80;;
78561;SDS011;68963;52.138;5.446;2023-07-20T02:06:16;3.50;;;1.80;;
78561;SDS011;68963;52.138;5.446;2023-07-20T02:08:42;4.85;;;2.08;;
78561;SDS011;68963;52.138;5.446;2023-07-20T02:11:09;4.28;;;1.83;;
78561;SDS011;68963;52.138;5.446;2023-07-20T02:13:36;5.05;;;2.00;;
78561;SDS011;68963;52.138;5.446;2023-07-20T02:16:09;4.47;;;1.85;;
78561;SDS011;68963;52.138;5.446;2023-07-20T02:18:37;3.95;;;1.83;;
78561;SDS011;68963;52.138;5.446;2023-07-20T02:21:04;4.45;;;2.28;;
78561;SDS011;68963;52.138;5.446;2023-07-20T02:23:31;5.63;;;2.67;;
78561;SDS011;68963;52.138;5.446;2023-07-20T02:25:58;4.65;;;2.30;;
78561;SDS011;68963;52.138;5.446;2023-07-20T02:28:24;4.50;;;2.40;;
78561;SDS011;68963;52.138;5.446;2023-07-20T02:30:51;5.20;;;2.58;;
78561;SDS011;68963;52.138;5.446;2023-07-20T02:33:18;6.25;;;2.58;;
78561;SDS011;68963;52.138;5.446;2023-07-20T02:35:44;5.13;;;2.60;;
78561;SDS011;68963;52.138;5.446;2023-07-20T02:38:11;5.20;;;2.42;;
78561;SDS011;68963;52.138;5.446;2023-07-20T02:40:37;5.53;;;2.63;;
78561;SDS011;68963;52.138;5.446;2023-07-20T02:43:04;5.85;;;2.42;;
78561;SDS011;68963;52.138;5.446;2023-07-20T02:45:31;6.15;;;2.65;;
78561;SDS011;68963;52.138;5.446;2023-07-20T02:47:57;4.95;;;2.60;;
78561;SDS011;68963;52.138;5.446;2023-07-20T02:50:24;5.80;;;2.65;;
78561;SDS011;68963;52.138;5.446;2023-07-20T02:52:50;5.28;;;2.60;;
78561;SDS011;68963;52.138;5.446;2023-07-20T02:55:17;5.60;;;2.58;;
78561;SDS011;68963;52.138;5.446;2023-07-20T02:57:44;6.60;;;3.13;;
78561;SDS011;68963;52.138;5.446;2023-07-20T03:00:10;5.00;;;2.70;;
78561;SDS011;68963;52.138;5.446;2023-07-20T03:02:37;6.68;;;2.72;;
78561;SDS011;68963;52.138;5.446;2023-07-20T03:05:05;4.72;;;2.50;;
78561;SDS011;68963;52.138;5.446;2023-07-20T03:07:33;5.03;;;2.28;;
78561;SDS011;68963;52.138;5.446;2023-07-20T03:10:00;5.65;;;2.45;;
78561;SDS011;68963;52.138;5.446;2023-07-20T03:12:26;4.80;;;2.70;;
78561;SDS011;68963;52.138;5.446;2023-07-20T03:14:53;6.07;;;2.53;;
78561;SDS011;68963;52.138;5.446;2023-07-20T03:17:20;5.70;;;2.70;;
78561;SDS011;68963;52.138;5.446;2023-07-20T03:19:47;5.50;;;2.78;;
78561;SDS011;68963;52.138;5.446;2023-07-20T03:22:14;6.57;;;2.70;;
78561;SDS011;68963;52.138;5.446;2023-07-20T03:24:40;5.55;;;2.60;;
78561;SDS011;68963;52.138;5.446;2023-07-20T03:27:07;5.03;;;2.60;;
78561;SDS011;68963;52.138;5.446;2023-07-20T03:29:34;5.25;;;2.92;;
78561;SDS011;68963;52.138;5.446;2023-07-20T03:32:01;5.40;;;2.72;;
78561;SDS011;68963;52.138;5.446;2023-07-20T03:34:27;5.63;;;2.47;;
78561;SDS011;68963;52.138;5.446;2023-07-20T03:36:54;5.15;;;2.55;;
78561;SDS011;68963;52.138;5.446;2023-07-20T03:39:21;6.50;;;2.55;;
78561;SDS011;68963;52.138;5.446;2023-07-20T03:41:48;5.55;;;2.40;;
78561;SDS011;68963;52.138;5.446;2023-07-20T03:44:15;5.30;;;2.35;;
78561;SDS011;68963;52.138;5.446;2023-07-20T03:46:43;5.00;;;2.40;;
78561;SDS011;68963;52.138;5.446;2023-07-20T03:49:10;7.90;;;3.38;;
78561;SDS011;68963;52.138;5.446;2023-07-20T03:51:36;5.53;;;2.80;;
78561;SDS011;68963;52.138;5.446;2023-07-20T03:54:04;5.85;;;2.55;;
78561;SDS011;68963;52.138;5.446;2023-07-20T03:59:38;4.50;;;2.30;;
78561;SDS011;68963;52.138;5.446;2023-07-20T04:02:05;5.65;;;2.63;;
78561;SDS011;68963;52.138;5.446;2023-07-20T04:04:32;4.75;;;2.42;;
78561;SDS011;68963;52.138;5.446;2023-07-20T04:06:59;5.20;;;2.00;;
78561;SDS011;68963;52.138;5.446;2023-07-20T04:09:26;4.05;;;1.90;;
78561;SDS011;68963;52.138;5.446;2023-07-20T04:11:52;4.20;;;1.73;;
78561;SDS011;68963;52.138;5.446;2023-07-20T04:14:19;5.15;;;1.95;;
78561;SDS011;68963;52.138;5.446;2023-07-20T04:16:46;5.00;;;2.38;;
78561;SDS011;68963;52.138;5.446;2023-07-20T04:19:14;4.90;;;2.55;;
78561;SDS011;68963;52.138;5.446;2023-07-20T04:21:40;4.45;;;2.42;;
78561;SDS011;68963;52.138;5.446;2023-07-20T04:24:07;4.93;;;2.53;;
78561;SDS011;68963;52.138;5.446;2023-07-20T04:26:34;4.93;;;2.20;;
78561;SDS011;68963;52.138;5.446;2023-07-20T04:29:02;5.35;;;2.40;;
78561;SDS011;68963;52.138;5.446;2023-07-20T04:33:59;6.53;;;2.75;;
78561;SDS011;68963;52.138;5.446;2023-07-20T04:36:26;6.30;;;2.75;;
78561;SDS011;68963;52.138;5.446;2023-07-20T04:38:53;4.88;;;2.60;;
78561;SDS011;68963;52.138;5.446;2023-07-20T04:41:19;4.95;;;2.58;;
78561;SDS011;68963;52.138;5.446;2023-07-20T04:43:47;6.10;;;2.90;;
78561;SDS011;68963;52.138;5.446;2023-07-20T04:46:13;5.18;;;2.50;;
78561;SDS011;68963;52.138;5.446;2023-07-20T04:48:41;5.55;;;2.72;;
78561;SDS011;68963;52.138;5.446;2023-07-20T04:51:08;7.93;;;3.03;;
78561;SDS011;68963;52.138;5.446;2023-07-20T04:53:35;5.75;;;3.00;;
78561;SDS011;68963;52.138;5.446;2023-07-20T04:56:01;6.63;;;2.95;;
78561;SDS011;68963;52.138;5.446;2023-07-20T04:58:28;7.00;;;3.28;;
78561;SDS011;68963;52.138;5.446;2023-07-20T05:00:54;5.70;;;3.10;;
78561;SDS011;68963;52.138;5.446;2023-07-20T05:03:21;6.28;;;3.03;;
78561;SDS011;68963;52.138;5.446;2023-07-20T05:05:48;7.32;;;3.33;;
78561;SDS011;68963;52.138;5.446;2023-07-20T05:08:16;5.90;;;2.95;;
78561;SDS011;68963;52.138;5.446;2023-07-20T05:10:42;7.13;;;3.15;;
78561;SDS011;68963;52.138;5.446;2023-07-20T05:13:09;7.63;;;3.35;;
78561;SDS011;68963;52.138;5.446;2023-07-20T05:15:36;5.55;;;2.85;;
78561;SDS011;68963;52.138;5.446;2023-07-20T05:18:03;5.30;;;2.97;;
78561;SDS011;68963;52.138;5.446;2023-07-20T05:20:30;5.80;;;3.08;;
78561;SDS011;68963;52.138;5.446;2023-07-20T05:22:58;6.30;;;3.08;;
78561;SDS011;68963;52.138;5.446;2023-07-20T05:25:28;5.80;;;3.17;;
78561;SDS011;68963;52.138;5.446;2023-07-20T05:27:56;6.55;;;3.13;;
78561;SDS011;68963;52.138;5.446;2023-07-20T05:30:24;6.45;;;3.33;;
78561;SDS011;68963;52.138;5.446;2023-07-20T05:32:55;6.32;;;3.13;;
78561;SDS011;68963;52.138;5.446;2023-07-20T05:35:22;6.78;;;3.58;;
78561;SDS011;68963;52.138;5.446;2023-07-20T05:37:52;6.55;;;3.33;;
78561;SDS011;68963;52.138;5.446;2023-07-20T05:40:19;7.22;;;3.10;;
78561;SDS011;68963;52.138;5.446;2023-07-20T05:42:47;6.78;;;3.38;;
78561;SDS011;68963;52.138;5.446;2023-07-20T05:45:18;7.03;;;3.28;;
78561;SDS011;68963;52.138;5.446;2023-07-20T05:47:46;5.88;;;3.15;;
78561;SDS011;68963;52.138;5.446;2023-07-20T05:50:13;5.70;;;3.10;;
78561;SDS011;68963;52.138;5.446;2023-07-20T05:52:40;5.97;;;3.20;;
78561;SDS011;68963;52.138;5.446;2023-07-20T05:55:07;6.75;;;3.45;;
78561;SDS011;68963;52.138;5.446;2023-07-20T05:57:34;5.13;;;2.83;;
78561;SDS011;68963;52.138;5.446;2023-07-20T06:00:01;5.90;;;2.97;;
78561;SDS011;68963;52.138;5.446;2023-07-20T06:02:29;5.30;;;3.00;;
78561;SDS011;68963;52.138;5.446;2023-07-20T06:04:56;7.95;;;3.40;;
78561;SDS011;68963;52.138;5.446;2023-07-20T06:07:23;6.13;;;2.60;;
78561;SDS011;68963;52.138;5.446;2023-07-20T06:09:50;5.43;;;2.20;;
78561;SDS011;68963;52.138;5.446;2023-07-20T06:12:16;4.75;;;2.00;;
78561;SDS011;68963;52.138;5.446;2023-07-20T06:14:43;5.93;;;2.40;;
78561;SDS011;68963;52.138;5.446;2023-07-20T06:17:10;4.85;;;2.00;;
78561;SDS011;68963;52.138;5.446;2023-07-20T06:19:37;4.70;;;2.22;;
78561;SDS011;68963;52.138;5.446;2023-07-20T06:22:04;5.25;;;2.15;;
78561;SDS011;68963;52.138;5.446;2023-07-20T06:24:31;5.15;;;1.85;;
78561;SDS011;68963;52.138;5.446;2023-07-20T06:26:57;4.70;;;2.10;;
78561;SDS011;68963;52.138;5.446;2023-07-20T06:29:24;4.47;;;2.03;;
78561;SDS011;68963;52.138;5.446;2023-07-20T06:31:50;4.45;;;1.92;;
78561;SDS011;68963;52.138;5.446;2023-07-20T06:34:17;4.47;;;1.98;;
78561;SDS011;68963;52.138;5.446;2023-07-20T06:36:46;5.05;;;2.08;;
78561;SDS011;68963;52.138;5.446;2023-07-20T06:39:13;4.43;;;2.10;;
78561;SDS011;68963;52.138;5.446;2023-07-20T06:41:43;4.60;;;2.00;;
78561;SDS011;68963;52.138;5.446;2023-07-20T06:44:09;4.80;;;2.08;;
78561;SDS011;68963;52.138;5.446;2023-07-20T06:46:37;3.97;;;1.67;;
78561;SDS011;68963;52.138;5.446;2023-07-20T06:49:05;4.28;;;1.65;;
78561;SDS011;68963;52.138;5.446;2023-07-20T06:51:37;4.80;;;2.00;;
78561;SDS011;68963;52.138;5.446;2023-07-20T06:54:03;4.47;;;1.92;;
78561;SDS011;68963;52.138;5.446;2023-07-20T06:56:31;4.28;;;1.70;;
78561;SDS011;68963;52.138;5.446;2023-07-20T06:58:59;5.28;;;1.45;;
78561;SDS011;68963;52.138;5.446;2023-07-20T07:01:25;3.85;;;1.15;;
78561;SDS011;68963;52.138;5.446;2023-07-20T07:03:52;4.32;;;1.65;;
78561;SDS011;68963;52.138;5.446;2023-07-20T07:06:21;3.70;;;1.50;;
78561;SDS011;68963;52.138;5.446;2023-07-20T07:08:50;3.70;;;1.10;;
78561;SDS011;68963;52.138;5.446;2023-07-20T07:11:17;4.40;;;1.80;;
78561;SDS011;68963;52.138;5.446;2023-07-20T07:13:43;3.92;;;1.30;;
78561;SDS011;68963;52.138;5.446;2023-07-20T07:16:12;5.20;;;1.10;;
78561;SDS011;68963;52.138;5.446;2023-07-20T07:18:46;5.20;;;1.23;;
78561;SDS011;68963;52.138;5.446;2023-07-20T07:21:13;4.10;;;1.25;;
78561;SDS011;68963;52.138;5.446;2023-07-20T07:23:39;4.18;;;1.33;;
78561;SDS011;68963;52.138;5.446;2023-07-20T07:26:06;3.00;;;1.17;;
78561;SDS011;68963;52.138;5.446;2023-07-20T07:28:32;3.25;;;1.00;;
78561;SDS011;68963;52.138;5.446;2023-07-20T07:30:59;4.20;;;1.30;;
78561;SDS011;68963;52.138;5.446;2023-07-20T07:33:27;3.85;;;1.05;;
78561;SDS011;68963;52.138;5.446;2023-07-20T07:35:53;3.55;;;1.30;;
78561;SDS011;68963;52.138;5.446;2023-07-20T07:38:20;3.95;;;1.20;;
78561;SDS011;68963;52.138;5.446;2023-07-20T07:41:05;3.92;;;1.17;;
78561;SDS011;68963;52.138;5.446;2023-07-20T07:43:32;5.13;;;1.20;;
78561;SDS011;68963;52.138;5.446;2023-07-20T07:46:01;3.75;;;1.27;;
78561;SDS011;68963;52.138;5.446;2023-07-20T07:48:28;3.88;;;1.20;;
78561;SDS011;68963;52.138;5.446;2023-07-20T07:50:54;3.55;;;1.20;;
78561;SDS011;68963;52.138;5.446;2023-07-20T07:53:21;3.15;;;1.05;;
78561;SDS011;68963;52.138;5.446;2023-07-20T07:55:48;4.85;;;1.20;;
78561;SDS011;68963;52.138;5.446;2023-07-20T07:58:18;3.83;;;1.10;;
78561;SDS011;68963;52.138;5.446;2023-07-20T08:01:01;3.55;;;0.90;;
78561;SDS011;68963;52.138;5.446;2023-07-20T08:03:28;3.38;;;0.90;;
78561;SDS011;68963;52.138;5.446;2023-07-20T08:05:55;3.90;;;1.00;;
78561;SDS011;68963;52.138;5.446;2023-07-20T08:08:22;3.78;;;1.10;;
78561;SDS011;68963;52.138;5.446;2023-07-20T08:10:50;2.53;;;0.98;;
78561;SDS011;68963;52.138;5.446;2023-07-20T08:13:19;2.92;;;1.08;;
78561;SDS011;68963;52.138;5.446;2023-07-20T08:15:48;3.22;;;1.10;;
78561;SDS011;68963;52.138;5.446;2023-07-20T08:18:17;3.15;;;0.90;;
78561;SDS011;68963;52.138;5.446;2023-07-20T08:20:44;4.28;;;1.15;;
78561;SDS011;68963;52.138;5.446;2023-07-20T08:23:13;3.47;;;1.08;;
78561;SDS011;68963;52.138;5.446;2023-07-20T08:25:40;5.15;;;1.10;;
78561;SDS011;68963;52.138;5.446;2023-07-20T08:28:19;2.53;;;0.80;;
78561;SDS011;68963;52.138;5.446;2023-07-20T08:30:46;2.80;;;0.88;;
78561;SDS011;68963;52.138;5.446;2023-07-20T08:33:16;3.80;;;0.90;;
78561;SDS011;68963;52.138;5.446;2023-07-20T08:35:47;3.63;;;1.00;;
78561;SDS011;68963;52.138;5.446;2023-07-20T08:38:14;3.53;;;1.00;;
78561;SDS011;68963;52.138;5.446;2023-07-20T08:40:42;2.80;;;0.90;;
78561;SDS011;68963;52.138;5.446;2023-07-20T08:43:12;5.90;;;1.02;;
78561;SDS011;68963;52.138;5.446;2023-07-20T08:45:40;3.78;;;0.85;;
78561;SDS011;68963;52.138;5.446;2023-07-20T08:48:08;3.08;;;0.82;;
78561;SDS011;68963;52.138;5.446;2023-07-20T08:50:43;3.25;;;0.80;;
78561;SDS011;68963;52.138;5.446;2023-07-20T08:53:12;2.47;;;0.75;;
78561;SDS011;68963;52.138;5.446;2023-07-20T08:55:39;2.67;;;0.80;;
78561;SDS011;68963;52.138;5.446;2023-07-20T08:58:09;2.90;;;0.90;;
78561;SDS011;68963;52.138;5.446;2023-07-20T09:00:39;2.97;;;0.90;;
78561;SDS011;68963;52.138;5.446;2023-07-20T09:03:09;3.50;;;0.90;;
78561;SDS011;68963;52.138;5.446;2023-07-20T09:05:37;3.70;;;1.20;;
78561;SDS011;68963;52.138;5.446;2023-07-20T09:08:06;3.58;;;1.00;;
78561;SDS011;68963;52.138;5.446;2023-07-20T09:10:33;2.70;;;0.88;;
78561;SDS011;68963;52.138;5.446;2023-07-20T09:13:00;2.38;;;0.90;;
78561;SDS011;68963;52.138;5.446;2023-07-20T09:15:26;3.08;;;1.10;;
78561;SDS011;68963;52.138;5.446;2023-07-20T09:17:58;2.70;;;0.98;;
78561;SDS011;68963;52.138;5.446;2023-07-20T09:20:27;6.30;;;1.17;;
78561;SDS011;68963;52.138;5.446;2023-07-20T09:22:58;3.40;;;1.10;;
78561;SDS011;68963;52.138;5.446;2023-07-20T09:25:25;3.03;;;0.90;;
78561;SDS011;68963;52.138;5.446;2023-07-20T09:27:56;4.32;;;0.90;;
78561;SDS011;68963;52.138;5.446;2023-07-20T09:30:25;2.83;;;0.80;;
78561;SDS011;68963;52.138;5.446;2023-07-20T09:32:57;2.83;;;0.90;;
78561;SDS011;68963;52.138;5.446;2023-07-20T09:35:25;3.22;;;0.73;;
78561;SDS011;68963;52.138;5.446;2023-07-20T09:38:01;3.03;;;0.90;;
78561;SDS011;68963;52.138;5.446;2023-07-20T09:40:36;2.22;;;0.70;;
78561;SDS011;68963;52.138;5.446;2023-07-20T09:43:08;2.60;;;0.80;;
78561;SDS011;68963;52.138;5.446;2023-07-20T09:45:41;2.42;;;0.75;;
78561;SDS011;68963;52.138;5.446;2023-07-20T09:48:11;3.78;;;0.73;;
78561;SDS011;68963;52.138;5.446;2023-07-20T09:50:42;2.40;;;0.60;;
78561;SDS011;68963;52.138;5.446;2023-07-20T09:53:15;2.85;;;0.75;;
78561;SDS011;68963;52.138;5.446;2023-07-20T09:55:44;3.30;;;0.63;;
78561;SDS011;68963;52.138;5.446;2023-07-20T09:58:15;3.03;;;0.73;;
78561;SDS011;68963;52.138;5.446;2023-07-20T10:03:16;2.08;;;0.63;;
78561;SDS011;68963;52.138;5.446;2023-07-20T10:05:54;2.25;;;0.70;;
78561;SDS011;68963;52.138;5.446;2023-07-20T10:08:27;2.60;;;0.70;;
78561;SDS011;68963;52.138;5.446;2023-07-20T10:10:59;3.63;;;0.88;;
78561;SDS011;68963;52.138;5.446;2023-07-20T10:13:29;2.05;;;0.60;;
78561;SDS011;68963;52.138;5.446;2023-07-20T10:21:45;2.20;;;0.80;;
78561;SDS011;68963;52.138;5.446;2023-07-20T10:24:24;2.45;;;0.70;;
78561;SDS011;68963;52.138;5.446;2023-07-20T10:26:52;2.10;;;0.60;;
78561;SDS011;68963;52.138;5.446;2023-07-20T10:29:21;2.90;;;0.75;;
78561;SDS011;68963;52.138;5.446;2023-07-20T10:31:49;2.70;;;0.80;;
78561;SDS011;68963;52.138;5.446;2023-07-20T10:34:18;2.97;;;0.77;;
78561;SDS011;68963;52.138;5.446;2023-07-20T10:36:45;1.98;;;0.60;;
78561;SDS011;68963;52.138;5.446;2023-07-20T10:41:50;2.58;;;0.93;;
78561;SDS011;68963;52.138;5.446;2023-07-20T10:44:20;2.10;;;0.60;;
78561;SDS011;68963;52.138;5.446;2023-07-20T10:46:46;3.40;;;0.70;;
78561;SDS011;68963;52.138;5.446;2023-07-20T10:49:14;2.40;;;0.60;;
78561;SDS011;68963;52.138;5.446;2023-07-20T10:51:45;2.97;;;0.82;;
78561;SDS011;68963;52.138;5.446;2023-07-20T10:59:50;3.50;;;0.70;;
78561;SDS011;68963;52.138;5.446;2023-07-20T11:02:48;2.30;;;0.70;;
78561;SDS011;68963;52.138;5.446;2023-07-20T11:05:33;2.05;;;0.60;;
78561;SDS011;68963;52.138;5.446;2023-07-20T11:08:11;1.80;;;0.60;;
78561;SDS011;68963;52.138;5.446;2023-07-20T11:10:38;2.28;;;0.63;;
78561;SDS011;68963;52.138;5.446;2023-07-20T11:13:19;2.60;;;0.70;;
78561;SDS011;68963;52.138;5.446;2023-07-20T11:18:27;1.77;;;0.60;;
78561;SDS011;68963;52.138;5.446;2023-07-20T11:20:55;2.33;;;0.65;;
78561;SDS011;68963;52.138;5.446;2023-07-20T11:23:22;2.30;;;0.60;;
78561;SDS011;68963;52.138;5.446;2023-07-20T11:25:49;2.90;;;0.70;;
78561;SDS011;68963;52.138;5.446;2023-07-20T11:28:16;2.83;;;0.70;;
78561;SDS011;68963;52.138;5.446;2023-07-20T11:30:43;1.98;;;0.60;;
78561;SDS011;68963;52.138;5.446;2023-07-20T11:33:10;2.22;;;0.75;;
78561;SDS011;68963;52.138;5.446;2023-07-20T11:35:44;4.20;;;0.70;;
78561;SDS011;68963;52.138;5.446;2023-07-20T11:38:14;1.80;;;0.60;;
78561;SDS011;68963;52.138;5.446;2023-07-20T11:40:42;1.48;;;0.50;;
78561;SDS011;68963;52.138;5.446;2023-07-20T11:43:10;1.58;;;0.50;;
78561;SDS011;68963;52.138;5.446;2023-07-20T11:45:41;14.35;;;1.30;;
78561;SDS011;68963;52.138;5.446;2023-07-20T11:48:14;1.83;;;0.60;;
78561;SDS011;68963;52.138;5.446;2023-07-20T11:50:41;1.70;;;0.50;;
78561;SDS011;68963;52.138;5.446;2023-07-20T11:53:08;1.88;;;0.50;;
78561;SDS011;68963;52.138;5.446;2023-07-20T11:55:35;1.73;;;0.40;;
78561;SDS011;68963;52.138;5.446;2023-07-20T11:58:06;1.52;;;0.47;;
78561;SDS011;68963;52.138;5.446;2023-07-20T12:00:34;1.48;;;0.40;;
78561;SDS011;68963;52.138;5.446;2023-07-20T12:03:04;1.55;;;0.50;;
78561;SDS011;68963;52.138;5.446;2023-07-20T12:05:33;2.47;;;0.50;;
78561;SDS011;68963;52.138;5.446;2023-07-20T12:08:21;1.92;;;0.50;;
78561;SDS011;68963;52.138;5.446;2023-07-20T12:10:48;2.58;;;0.50;;
78561;SDS011;68963;52.138;5.446;2023-07-20T12:13:15;1.85;;;0.57;;
78561;SDS011;68963;52.138;5.446;2023-07-20T12:15:42;2.78;;;0.60;;
78561;SDS011;68963;52.138;5.446;2023-07-20T12:18:10;2.25;;;0.65;;
78561;SDS011;68963;52.138;5.446;2023-07-20T12:20:36;2.67;;;0.68;;
78561;SDS011;68963;52.138;5.446;2023-07-20T12:23:08;3.08;;;0.70;;
78561;SDS011;68963;52.138;5.446;2023-07-20T12:28:08;1.77;;;0.50;;
78561;SDS011;68963;52.138;5.446;2023-07-20T12:30:37;3.13;;;0.70;;
78561;SDS011;68963;52.138;5.446;2023-07-20T12:33:06;2.45;;;0.60;;
78561;SDS011;68963;52.138;5.446;2023-07-20T12:35:33;2.50;;;0.70;;
78561;SDS011;68963;52.138;5.446;2023-07-20T12:38:00;2.58;;;0.73;;
78561;SDS011;68963;52.138;5.446;2023-07-20T12:40:27;2.35;;;0.60;;
78561;SDS011;68963;52.138;5.446;2023-07-20T12:42:54;2.08;;;0.60;;
78561;SDS011;68963;52.138;5.446;2023-07-20T12:45:20;2.78;;;0.70;;
78561;SDS011;68963;52.138;5.446;2023-07-20T12:47:48;3.85;;;1.00;;
78561;SDS011;68963;52.138;5.446;2023-07-20T12:50:15;2.55;;;0.80;;
78561;SDS011;68963;52.138;5.446;2023-07-20T12:52:42;2.60;;;0.80;;
78561;SDS011;68963;52.138;5.446;2023-07-20T12:55:09;3.88;;;0.90;;
78561;SDS011;68963;52.138;5.446;2023-07-20T12:57:38;2.63;;;0.90;;
78561;SDS011;68963;52.138;5.446;2023-07-20T13:00:09;3.60;;;1.00;;
78561;SDS011;68963;52.138;5.446;2023-07-20T13:02:39;3.13;;;0.90;;
78561;SDS011;68963;52.138;5.446;2023-07-20T13:05:06;4.47;;;0.90;;
78561;SDS011;68963;52.138;5.446;2023-07-20T13:07:37;4.75;;;1.00;;
78561;SDS011;68963;52.138;5.446;2023-07-20T13:10:08;4.78;;;1.20;;
78561;SDS011;68963;52.138;5.446;2023-07-20T13:12:36;3.85;;;0.95;;
78561;SDS011;68963;52.138;5.446;2023-07-20T13:15:04;5.63;;;1.10;;
78561;SDS011;68963;52.138;5.446;2023-07-20T13:17:33;2.80;;;1.00;;
78561;SDS011;68963;52.138;5.446;2023-07-20T13:20:02;3.78;;;0.90;;
78561;SDS011;68963;52.138;5.446;2023-07-20T13:22:32;4.10;;;1.10;;
78561;SDS011;68963;52.138;5.446;2023-07-20T13:25:04;2.72;;;0.90;;
78561;SDS011;68963;52.138;5.446;2023-07-20T13:27:55;3.10;;;0.88;;
78561;SDS011;68963;52.138;5.446;2023-07-20T13:30:22;3.05;;;0.88;;
78561;SDS011;68963;52.138;5.446;2023-07-20T13:32:58;3.53;;;1.02;;
78561;SDS011;68963;52.138;5.446;2023-07-20T13:35:28;2.97;;;1.00;;
78561;SDS011;68963;52.138;5.446;2023-07-20T13:38:04;3.55;;;1.10;;
78561;SDS011;68963;52.138;5.446;2023-07-20T13:40:31;3.58;;;1.00;;
78561;SDS011;68963;52.138;5.446;2023-07-20T13:42:58;3.10;;;1.02;;
78561;SDS011;68963;52.138;5.446;2023-07-20T13:45:25;2.90;;;0.93;;
78561;SDS011;68963;52.138;5.446;2023-07-20T13:47:52;3.03;;;1.00;;
78561;SDS011;68963;52.138;5.446;2023-07-20T13:50:19;3.88;;;1.08;;
78561;SDS011;68963;52.138;5.446;2023-07-20T13:52:48;2.97;;;0.93;;
78561;SDS011;68963;52.138;5.446;2023-07-20T13:55:15;3.30;;;0.90;;
78561;SDS011;68963;52.138;5.446;2023-07-20T13:57:42;2.60;;;0.90;;
78561;SDS011;68963;52.138;5.446;2023-07-20T14:00:09;3.85;;;1.00;;
78561;SDS011;68963;52.138;5.446;2023-07-20T14:02:37;3.10;;;1.00;;
78561;SDS011;68963;52.138;5.446;2023-07-20T14:05:07;2.80;;;0.98;;
78561;SDS011;68963;52.138;5.446;2023-07-20T14:07:38;4.00;;;1.00;;
78561;SDS011;68963;52.138;5.446;2023-07-20T14:12:35;3.63;;;0.90;;
78561;SDS011;68963;52.138;5.446;2023-07-20T14:15:02;2.65;;;1.00;;
78561;SDS011;68963;52.138;5.446;2023-07-20T14:17:31;2.75;;;0.90;;
78561;SDS011;68963;52.138;5.446;2023-07-20T14:20:04;2.70;;;0.80;;
78561;SDS011;68963;52.138;5.446;2023-07-20T14:22:47;3.10;;;1.10;;
78561;SDS011;68963;52.138;5.446;2023-07-20T14:25:17;3.45;;;1.00;;
78561;SDS011;68963;52.138;5.446;2023-07-20T14:27:45;2.58;;;0.90;;
78561;SDS011;68963;52.138;5.446;2023-07-20T14:30:12;3.55;;;1.02;;
78561;SDS011;68963;52.138;5.446;2023-07-20T14:32:40;3.03;;;1.00;;
78561;SDS011;68963;52.138;5.446;2023-07-20T14:35:06;4.15;;;1.10;;
78561;SDS011;68963;52.138;5.446;2023-07-20T14:37:36;2.72;;;0.90;;
78561;SDS011;68963;52.138;5.446;2023-07-20T14:40:09;3.15;;;1.10;;
78561;SDS011;68963;52.138;5.446;2023-07-20T14:42:40;3.17;;;1.00;;
78561;SDS011;68963;52.138;5.446;2023-07-20T14:45:07;3.92;;;0.80;;
78561;SDS011;68963;52.138;5.446;2023-07-20T14:47:34;2.70;;;0.93;;
78561;SDS011;68963;52.138;5.446;2023-07-20T14:50:02;2.78;;;0.90;;
78561;SDS011;68963;52.138;5.446;2023-07-20T14:52:33;2.58;;;0.93;;
78561;SDS011;68963;52.138;5.446;2023-07-20T14:55:00;3.80;;;1.00;;
78561;SDS011;68963;52.138;5.446;2023-07-20T14:57:27;3.65;;;0.95;;
78561;SDS011;68963;52.138;5.446;2023-07-20T15:00:02;3.42;;;1.00;;
78561;SDS011;68963;52.138;5.446;2023-07-20T15:02:42;2.90;;;0.90;;
78561;SDS011;68963;52.138;5.446;2023-07-20T15:05:10;2.30;;;0.80;;
78561;SDS011;68963;52.138;5.446;2023-07-20T15:07:37;3.30;;;0.80;;
78561;SDS011;68963;52.138;5.446;2023-07-20T15:10:05;2.80;;;0.90;;
78561;SDS011;68963;52.138;5.446;2023-07-20T15:12:32;2.60;;;0.90;;
78561;SDS011;68963;52.138;5.446;2023-07-20T15:17:54;2.60;;;0.93;;
78561;SDS011;68963;52.138;5.446;2023-07-20T15:20:20;3.25;;;1.00;;
78561;SDS011;68963;52.138;5.446;2023-07-20T15:25:15;2.15;;;0.80;;
78561;SDS011;68963;52.138;5.446;2023-07-20T15:27:42;2.90;;;0.90;;
78561;SDS011;68963;52.138;5.446;2023-07-20T15:30:16;3.50;;;0.90;;
78561;SDS011;68963;52.138;5.446;2023-07-20T15:32:52;3.28;;;1.10;;
78561;SDS011;68963;52.138;5.446;2023-07-20T15:35:24;3.25;;;1.30;;
78561;SDS011;68963;52.138;5.446;2023-07-20T15:37:51;3.40;;;1.30;;
78561;SDS011;68963;52.138;5.446;2023-07-20T15:40:19;2.80;;;1.20;;
78561;SDS011;68963;52.138;5.446;2023-07-20T15:42:46;4.20;;;1.45;;
78561;SDS011;68963;52.138;5.446;2023-07-20T15:45:16;4.88;;;1.23;;